Time;durP1;ratioP1;P1;durP2;ratioP2;P2;SDS_P1;SDS_P2;PMS_P1;PMS_P2;Temp;Humidity;BMP_temperature;BMP_pressure;BME280_temperature;BME280_humidity;BME280_pressure;Samples;Min_cycle;Max_cycle;Signal;HPM_P1;HPM_P2
2022/08/02 00:01:06;;;;;;;1.50;0.90;;;18.70;98.20;;;;;;6119254;23;20448;-81
2022/08/02 00:03:33;;;;;;;1.50;0.90;;;18.70;98.20;;;;;;6150040;23;20456;-80
2022/08/02 00:06:00;;;;;;;1.50;0.90;;;18.70;98.20;;;;;;6117471;23;20901;-81
2022/08/02 00:08:27;;;;;;;1.50;1.00;;;18.60;98.20;;;;;;6150269;23;20511;-83
2022/08/02 00:10:54;;;;;;;1.47;0.90;;;18.60;98.20;;;;;;6125347;23;20449;-82
2022/08/02 00:13:21;;;;;;;1.50;0.90;;;18.60;98.20;;;;;;6150819;23;20950;-81
2022/08/02 00:15:50;;;;;;;1.47;0.90;;;18.50;98.20;;;;;;6119840;23;20418;-80
2022/08/02 00:18:17;;;;;;;1.47;1.00;;;18.50;98.20;;;;;;6153350;23;20537;-82
2022/08/02 00:20:44;;;;;;;1.50;0.90;;;18.50;98.20;;;;;;6131515;23;20442;-83
2022/08/02 00:23:11;;;;;;;1.50;0.97;;;18.50;98.20;;;;;;6139100;23;20453;-81
2022/08/02 00:25:38;;;;;;;1.47;0.90;;;18.50;98.20;;;;;;6140614;23;20426;-81
2022/08/02 00:28:05;;;;;;;1.50;1.00;;;18.50;98.20;;;;;;6139169;23;20547;-83
2022/08/02 00:30:33;;;;;;;1.50;1.00;;;18.40;98.20;;;;;;6131161;23;20442;-82
2022/08/02 00:33:03;;;;;;;1.50;0.90;;;18.40;98.20;;;;;;6139537;23;20456;-82
2022/08/02 00:35:31;;;;;;;1.50;1.00;;;18.40;98.20;;;;;;6141899;23;20476;-80
2022/08/02 00:37:58;;;;;;;1.43;1.00;;;18.40;98.20;;;;;;6140515;23;20455;-80
2022/08/02 00:40:25;;;;;;;1.50;1.00;;;18.40;98.20;;;;;;6131725;23;20445;-83
2022/08/02 00:43:03;;;;;;;1.50;0.90;;;18.40;98.20;;;;;;6139017;23;20476;-79
2022/08/02 00:45:30;;;;;;;1.47;1.00;;;18.40;98.20;;;;;;6132184;23;20469;-81
2022/08/02 00:47:57;;;;;;;1.47;0.90;;;18.40;98.20;;;;;;6139778;23;20451;-81
2022/08/02 00:50:27;;;;;;;1.47;0.90;;;18.40;98.20;;;;;;6131804;23;20444;-81
2022/08/02 00:52:54;;;;;;;1.50;0.90;;;18.40;98.20;;;;;;6139462;23;20576;-83
2022/08/02 00:55:22;;;;;;;1.43;0.97;;;18.30;98.20;;;;;;6130959;23;20409;-81
2022/08/02 00:57:53;;;;;;;1.47;0.90;;;18.30;98.20;;;;;;6141333;23;20453;-81
2022/08/02 01:00:20;;;;;;;1.47;0.90;;;18.20;98.20;;;;;;6140288;23;20436;-81
2022/08/02 01:02:49;;;;;;;1.50;1.00;;;18.20;98.20;;;;;;6131038;23;20418;-81
2022/08/02 01:05:16;;;;;;;1.47;0.90;;;18.30;98.20;;;;;;6139989;23;20437;-80
2022/08/02 01:07:44;;;;;;;1.50;0.90;;;18.20;98.20;;;;;;6138183;23;20476;-80
2022/08/02 01:10:12;;;;;;;1.47;0.90;;;18.20;98.20;;;;;;6129896;23;20474;-82
2022/08/02 01:12:39;;;;;;;1.50;0.90;;;18.20;98.20;;;;;;6136413;23;20449;-82
2022/08/02 01:15:09;;;;;;;1.50;0.90;;;18.20;98.20;;;;;;6132012;23;20413;-82
2022/08/02 01:17:43;;;;;;;1.50;0.90;;;18.20;98.20;;;;;;6138062;23;20516;-81
2022/08/02 01:20:25;;;;;;;1.50;1.00;;;18.20;98.20;;;;;;6130818;23;20445;-81
2022/08/02 01:23:09;;;;;;;1.50;0.90;;;18.20;98.20;;;;;;6138317;23;20480;-82
2022/08/02 01:25:57;;;;;;;1.50;1.00;;;18.20;98.20;;;;;;6129647;23;20402;-82
2022/08/02 01:28:36;;;;;;;1.50;1.00;;;18.20;98.20;;;;;;6089866;23;20766;-80
2022/08/02 01:31:10;;;;;;;1.40;0.97;;;18.20;98.20;;;;;;6117383;23;20461;-81
2022/08/02 01:33:48;;;;;;;1.50;0.90;;;18.20;98.20;;;;;;6145501;23;20398;-81
2022/08/02 01:36:20;;;;;;;1.50;0.90;;;18.10;98.20;;;;;;6138315;23;20433;-80
2022/08/02 01:42:30;;;;;;;1.43;0.97;;;18.10;98.20;;;;;;6032633;23;20469;-82
2022/08/02 01:45:50;;;;;;;1.50;0.97;;;18.10;98.20;;;;;;6140780;23;20480;-80
2022/08/02 01:52:20;;;;;;;1.43;0.90;;;18.10;98.20;;;;;;6096624;23;20458;-81
2022/08/02 01:54:26;;;;;;;1.50;1.00;;;18.10;98.20;;;;;;6140148;23;20418;-80
2022/08/02 01:57:01;;;;;;;1.43;1.00;;;18.00;98.20;;;;;;6142739;23;20453;-81
2022/08/02 01:59:34;;;;;;;1.50;0.97;;;17.90;98.20;;;;;;6148205;23;20501;-81
2022/08/02 02:02:10;;;;;;;1.50;1.00;;;17.80;98.20;;;;;;6145979;23;20441;-82
2022/08/02 02:04:41;;;;;;;1.50;0.90;;;17.80;98.20;;;;;;6137698;23;20924;-80
2022/08/02 02:07:09;;;;;;;1.50;0.90;;;17.70;98.20;;;;;;6141855;23;20448;-82
2022/08/02 02:09:49;;;;;;;1.50;0.90;;;17.70;98.20;;;;;;6154812;23;20658;-80
2022/08/02 02:12:20;;;;;;;1.50;1.00;;;17.70;98.20;;;;;;6137616;23;20430;-81
2022/08/02 02:14:52;;;;;;;1.50;0.90;;;17.60;98.20;;;;;;6148999;23;20421;-79
2022/08/02 02:17:22;;;;;;;1.50;0.90;;;17.60;98.20;;;;;;6140644;23;20449;-80
2022/08/02 02:19:53;;;;;;;1.50;0.90;;;17.50;98.20;;;;;;6142668;23;20446;-82
2022/08/02 02:22:21;;;;;;;1.50;1.00;;;17.40;98.20;;;;;;6141547;23;20456;-81
2022/08/02 02:24:51;;;;;;;1.50;0.90;;;17.40;98.20;;;;;;6152770;23;20444;-81
2022/08/02 02:27:24;;;;;;;1.50;0.90;;;17.40;98.20;;;;;;6144683;23;20453;-82
2022/08/02 02:29:53;;;;;;;1.50;0.90;;;17.40;98.20;;;;;;6153872;23;20509;-80
2022/08/02 02:32:25;;;;;;;1.50;1.00;;;17.40;98.20;;;;;;6138832;23;20462;-82
2022/08/02 02:34:54;;;;;;;1.50;1.00;;;17.40;98.20;;;;;;6149959;23;20497;-81
2022/08/02 02:37:24;;;;;;;1.50;0.90;;;17.40;98.20;;;;;;6137057;23;20432;-80
2022/08/02 02:39:53;;;;;;;1.50;1.00;;;17.40;98.20;;;;;;6143734;23;20445;-83
2022/08/02 02:42:24;;;;;;;1.50;1.00;;;17.40;98.20;;;;;;6137878;23;20452;-81
2022/08/02 02:44:53;;;;;;;1.47;0.90;;;17.40;98.20;;;;;;6139426;23;20430;-81
2022/08/02 02:47:23;;;;;;;1.50;0.90;;;17.40;98.20;;;;;;6137683;23;20452;-81
2022/08/02 02:49:52;;;;;;;1.50;0.90;;;17.40;98.20;;;;;;6138248;23;20913;-84
2022/08/02 02:52:20;;;;;;;1.50;0.90;;;17.40;98.20;;;;;;6141944;23;20461;-83
2022/08/02 02:54:49;;;;;;;1.50;1.00;;;17.30;98.20;;;;;;6135452;23;20425;-81
2022/08/02 02:57:16;;;;;;;1.50;1.00;;;17.30;98.20;;;;;;6134128;23;20422;-81
2022/08/02 02:59:44;;;;;;;1.50;1.00;;;17.30;98.20;;;;;;6146954;23;20498;-82
2022/08/02 03:02:12;;;;;;;1.50;0.90;;;17.20;98.20;;;;;;6135871;23;20449;-81
2022/08/02 03:04:42;;;;;;;1.50;1.00;;;17.20;98.20;;;;;;6142757;23;20446;-82
2022/08/02 03:07:10;;;;;;;1.50;0.90;;;17.20;98.20;;;;;;6137025;23;20421;-81
2022/08/02 03:09:37;;;;;;;1.50;1.00;;;17.20;98.20;;;;;;6137640;23;20456;-81
2022/08/02 03:12:05;;;;;;;1.50;0.90;;;17.20;98.20;;;;;;6138436;23;20512;-80
2022/08/02 03:14:33;;;;;;;1.50;1.00;;;17.10;98.20;;;;;;6152159;23;20413;-82
2022/08/02 03:17:00;;;;;;;1.50;0.93;;;17.10;98.20;;;;;;6139169;23;20448;-80
2022/08/02 03:19:28;;;;;;;1.50;0.90;;;17.10;98.20;;;;;;6148925;23;20449;-81
2022/08/02 03:21:56;;;;;;;1.50;0.97;;;17.10;98.20;;;;;;6127084;23;20459;-82
2022/08/02 03:24:23;;;;;;;1.50;1.00;;;17.10;98.20;;;;;;6140124;23;20446;-79
2022/08/02 03:26:51;;;;;;;1.50;1.00;;;17.10;98.20;;;;;;6127667;23;20512;-81
2022/08/02 03:29:18;;;;;;;1.50;1.00;;;17.10;98.20;;;;;;6138841;23;20504;-80
2022/08/02 03:31:47;;;;;;;1.50;1.00;;;17.10;98.20;;;;;;6130614;23;20453;-80
2022/08/02 03:34:14;;;;;;;1.50;0.90;;;17.10;98.20;;;;;;6148513;23;20417;-83
2022/08/02 03:36:42;;;;;;;1.50;0.90;;;17.00;98.20;;;;;;6129137;23;20432;-80
2022/08/02 03:39:13;;;;;;;1.50;1.00;;;17.00;98.20;;;;;;6130090;23;20450;-80
2022/08/02 03:41:41;;;;;;;1.50;1.00;;;17.00;98.20;;;;;;6123947;23;20449;-80
2022/08/02 03:44:10;;;;;;;1.50;1.00;;;17.00;98.20;;;;;;6141795;23;20441;-81
2022/08/02 03:46:39;;;;;;;1.87;1.67;;;17.00;98.20;;;;;;6130533;23;20426;-81
2022/08/02 03:49:08;;;;;;;1.50;0.90;;;17.00;98.20;;;;;;6129571;23;20429;-82
2022/08/02 03:51:36;;;;;;;1.50;0.90;;;17.00;98.20;;;;;;6124791;23;20448;-81
2022/08/02 03:54:04;;;;;;;1.50;0.90;;;17.00;98.20;;;;;;6154390;23;20513;-79
2022/08/02 03:56:34;;;;;;;1.50;1.00;;;16.90;98.20;;;;;;6126027;23;21078;-82
2022/08/02 03:59:10;;;;;;;1.50;1.00;;;16.90;98.20;;;;;;6157319;23;20765;-80
2022/08/02 04:01:38;;;;;;;2.67;2.00;;;16.90;98.20;;;;;;6124833;23;20459;-80
2022/08/02 04:04:06;;;;;;;1.50;0.93;;;16.90;98.20;;;;;;6144141;23;20421;-82
2022/08/02 04:06:33;;;;;;;1.50;0.90;;;16.90;98.20;;;;;;6122998;23;20520;-81
2022/08/02 04:09:01;;;;;;;1.47;0.97;;;16.90;98.20;;;;;;6153821;23;20888;-82
2022/08/02 04:11:31;;;;;;;1.50;0.90;;;16.90;98.20;;;;;;6122994;23;20539;-81
2022/08/02 04:14:02;;;;;;;1.47;0.90;;;16.90;98.20;;;;;;6157130;23;20426;-82
2022/08/02 04:16:38;;;;;;;1.50;0.90;;;16.90;98.20;;;;;;6131891;23;20406;-80
2022/08/02 04:19:08;;;;;;;1.50;0.90;;;16.90;98.20;;;;;;6133672;23;20405;-80
2022/08/02 04:21:38;;;;;;;1.50;1.00;;;16.90;98.20;;;;;;6142982;23;20428;-79
2022/08/02 04:24:09;;;;;;;1.47;0.90;;;16.90;98.20;;;;;;6133956;23;20424;-79
2022/08/02 04:26:37;;;;;;;1.50;0.90;;;16.90;98.20;;;;;;6125863;23;20508;-80
2022/08/02 04:29:07;;;;;;;1.50;0.90;;;16.90;98.20;;;;;;6145001;23;20428;-79
2022/08/02 04:31:35;;;;;;;1.50;1.00;;;16.90;98.20;;;;;;6145422;23;20471;-81
2022/08/02 04:34:03;;;;;;;1.50;1.00;;;16.90;98.20;;;;;;6152791;23;20421;-81
2022/08/02 04:36:31;;;;;;;1.50;1.00;;;17.00;98.20;;;;;;6132116;23;20959;-79
2022/08/02 04:38:59;;;;;;;1.50;1.00;;;17.00;98.20;;;;;;6141052;23;20759;-80
2022/08/02 04:41:38;;;;;;;1.50;1.00;;;16.90;98.20;;;;;;6130383;23;20504;-79
2022/08/02 04:44:07;;;;;;;1.50;0.90;;;16.90;98.20;;;;;;6141994;23;20405;-78
2022/08/02 04:46:35;;;;;;;1.47;0.93;;;17.00;98.20;;;;;;6127125;23;20503;-79
2022/08/02 04:49:03;;;;;;;1.50;0.90;;;17.00;98.20;;;;;;6146816;23;20422;-79
2022/08/02 04:51:40;;;;;;;1.50;1.00;;;17.00;98.20;;;;;;6127083;23;20676;-80
2022/08/02 04:54:09;;;;;;;1.47;0.90;;;17.00;98.20;;;;;;6157973;23;20508;-79
2022/08/02 04:56:37;;;;;;;1.47;0.90;;;17.10;98.20;;;;;;6133663;23;20652;-80
2022/08/02 04:59:06;;;;;;;1.50;0.90;;;17.10;98.20;;;;;;6144368;23;20521;-79
2022/08/02 05:01:35;;;;;;;1.50;0.90;;;17.20;98.20;;;;;;6130159;23;20445;-79
2022/08/02 05:04:06;;;;;;;1.50;1.00;;;17.20;98.20;;;;;;6150612;23;20592;-80
2022/08/02 05:06:48;;;;;;;1.50;1.00;;;17.20;98.20;;;;;;6140058;23;20448;-80
2022/08/02 05:09:16;;;;;;;1.50;0.90;;;17.30;98.20;;;;;;6154492;23;20537;-81
2022/08/02 05:11:43;;;;;;;1.50;0.97;;;17.30;98.20;;;;;;6129327;23;20491;-80
2022/08/02 05:14:12;;;;;;;1.50;1.00;;;17.40;98.20;;;;;;6151692;23;20424;-79
2022/08/02 05:16:39;;;;;;;1.50;1.00;;;17.50;98.20;;;;;;6135631;23;20448;-80
2022/08/02 05:19:07;;;;;;;1.47;0.97;;;17.60;98.20;;;;;;6155467;23;20436;-80
2022/08/02 05:21:38;;;;;;;1.50;0.90;;;17.70;98.20;;;;;;6126346;23;20448;-80
2022/08/02 05:24:07;;;;;;;1.50;0.90;;;17.90;98.20;;;;;;6156831;23;20418;-80
2022/08/02 05:26:34;;;;;;;1.50;0.90;;;18.00;98.20;;;;;;6133618;23;20449;-80
2022/08/02 05:29:03;;;;;;;1.50;0.90;;;18.20;98.20;;;;;;6148491;23;20454;-80
2022/08/02 05:31:32;;;;;;;1.50;1.00;;;18.30;98.20;;;;;;6131814;23;20422;-80
2022/08/02 05:34:03;;;;;;;1.50;0.90;;;18.40;98.20;;;;;;6138442;23;20435;-81
2022/08/02 05:36:42;;;;;;;1.50;1.10;;;18.60;98.20;;;;;;6129659;23;20468;-80
2022/08/02 05:39:09;;;;;;;1.50;0.90;;;18.70;98.20;;;;;;6152367;23;20437;-81
2022/08/02 05:41:38;;;;;;;1.50;0.90;;;18.80;98.20;;;;;;6133950;23;20440;-80
2022/08/02 05:44:06;;;;;;;1.50;1.10;;;18.90;98.20;;;;;;6128487;23;20505;-80
2022/08/02 05:46:36;;;;;;;1.50;0.90;;;18.90;98.20;;;;;;6123694;23;20449;-81
2022/08/02 05:49:04;;;;;;;1.50;0.90;;;19.00;98.20;;;;;;6144285;23;20814;-81
2022/08/02 05:51:38;;;;;;;1.50;1.00;;;19.10;98.20;;;;;;6122320;23;20480;-81
2022/08/02 05:54:16;;;;;;;1.50;0.90;;;19.20;98.20;;;;;;6147673;23;20465;-81
2022/08/02 05:56:56;;;;;;;1.50;0.90;;;19.20;98.20;;;;;;6133961;23;20406;-81
2022/08/02 05:59:32;;;;;;;1.50;0.90;;;19.30;98.20;;;;;;6137948;23;20516;-83
2022/08/02 06:02:14;;;;;;;1.50;1.00;;;19.30;98.20;;;;;;6119398;23;20452;-84
2022/08/02 06:04:54;;;;;;;1.50;0.90;;;19.50;98.20;;;;;;6138049;23;20488;-90
2022/08/02 06:07:23;;;;;;;1.60;1.20;;;19.70;98.20;;;;;;6158682;23;20468;-91
2022/08/02 06:09:51;;;;;;;1.50;0.90;;;20.00;98.20;;;;;;6161422;23;20507;-89
2022/08/02 06:12:20;;;;;;;1.50;0.90;;;20.10;98.20;;;;;;6141778;23;20983;-89
2022/08/02 06:14:48;;;;;;;1.50;0.90;;;20.40;98.20;;;;;;6165030;23;20449;-90
2022/08/02 06:17:17;;;;;;;1.50;1.00;;;20.70;98.20;;;;;;6137683;23;20592;-87
2022/08/02 06:19:46;;;;;;;1.50;0.97;;;21.00;98.20;;;;;;6160219;23;20826;-89
2022/08/02 06:22:15;;;;;;;1.50;0.90;;;21.20;98.20;;;;;;6137801;23;20543;-91
2022/08/02 06:24:44;;;;;;;1.50;0.90;;;21.30;98.20;;;;;;6154765;23;20413;-89
2022/08/02 06:27:13;;;;;;;1.50;0.90;;;21.50;98.20;;;;;;6138122;23;20905;-88
2022/08/02 06:29:41;;;;;;;1.50;0.90;;;21.60;98.20;;;;;;6129418;23;20425;-89
2022/08/02 06:32:08;;;;;;;1.50;0.90;;;21.80;98.00;;;;;;6139640;23;20452;-89
2022/08/02 06:34:38;;;;;;;1.50;0.90;;;22.10;97.40;;;;;;6150232;23;20444;-88
2022/08/02 06:37:14;;;;;;;1.50;0.90;;;22.20;96.30;;;;;;6137810;23;20460;-89
2022/08/02 06:39:46;;;;;;;1.50;0.90;;;22.20;96.20;;;;;;6158200;23;21221;-91
2022/08/02 06:42:17;;;;;;;1.50;0.90;;;22.30;96.30;;;;;;6137821;23;20477;-92
2022/08/02 06:44:44;;;;;;;1.50;0.90;;;22.40;96.30;;;;;;6152903;23;20431;-89
2022/08/02 06:47:11;;;;;;;1.50;0.90;;;22.60;95.20;;;;;;6138386;23;20647;-89
2022/08/02 06:49:40;;;;;;;1.50;0.90;;;22.80;94.80;;;;;;6152652;23;20457;-88
2022/08/02 06:52:07;;;;;;;1.50;0.90;;;22.90;94.30;;;;;;6142679;23;20998;-90
2022/08/02 06:54:34;;;;;;;1.50;0.90;;;22.90;94.20;;;;;;6165124;23;20424;-89
2022/08/02 06:57:02;;;;;;;1.50;0.90;;;23.00;94.00;;;;;;6145986;23;20527;-90
2022/08/02 06:59:29;;;;;;;1.50;0.90;;;23.10;93.40;;;;;;6154159;23;20524;-89
2022/08/02 07:01:58;;;;;;;1.50;0.90;;;23.10;93.60;;;;;;6164466;23;20506;-89
2022/08/02 07:04:28;;;;;;;1.50;0.90;;;23.20;93.90;;;;;;6166692;23;20456;-90
2022/08/02 07:06:56;;;;;;;1.50;0.90;;;23.30;93.40;;;;;;6138937;23;20453;-90
2022/08/02 07:09:23;;;;;;;1.50;0.90;;;23.40;92.90;;;;;;6154043;23;20476;-89
2022/08/02 07:11:50;;;;;;;1.50;0.83;;;23.50;92.60;;;;;;6142114;23;20812;-89
2022/08/02 07:14:17;;;;;;;1.50;0.90;;;23.70;92.10;;;;;;6151240;23;20432;-88
2022/08/02 07:16:44;;;;;;;1.50;0.90;;;23.80;92.10;;;;;;6137168;23;20474;-89
2022/08/02 07:19:11;;;;;;;1.50;0.90;;;24.00;91.60;;;;;;6151079;23;20448;-90
2022/08/02 07:21:38;;;;;;;1.50;0.90;;;24.10;90.80;;;;;;6152510;23;21035;-89
2022/08/02 07:24:06;;;;;;;1.50;0.90;;;24.10;90.30;;;;;;6153548;23;20797;-88
2022/08/02 07:26:33;;;;;;;1.50;0.90;;;24.10;90.70;;;;;;6153049;23;20468;-88
2022/08/02 07:29:01;;;;;;;1.47;0.90;;;24.20;90.40;;;;;;6151346;23;20460;-90
2022/08/02 07:31:28;;;;;;;1.50;0.90;;;24.30;89.80;;;;;;6136229;23;20460;-89
2022/08/02 07:33:55;;;;;;;1.47;0.90;;;24.40;89.20;;;;;;6150642;23;20500;-90
2022/08/02 07:36:25;;;;;;;1.50;0.90;;;24.70;89.20;;;;;;6151699;23;20417;-88
2022/08/02 07:38:52;;;;;;;1.50;0.80;;;25.00;87.70;;;;;;6174039;23;20420;-89
2022/08/02 07:41:22;;;;;;;1.70;1.23;;;25.10;87.10;;;;;;6152997;23;20468;-90
2022/08/02 07:43:50;;;;;;;1.50;0.90;;;25.20;87.10;;;;;;6154376;23;20413;-90
2022/08/02 07:46:17;;;;;;;1.50;0.90;;;25.50;87.00;;;;;;6140676;23;20479;-88
2022/08/02 07:48:46;;;;;;;1.50;0.87;;;25.70;86.30;;;;;;6155687;23;20445;-89
2022/08/02 07:51:13;;;;;;;1.47;0.83;;;25.90;85.90;;;;;;6140424;23;20455;-89
2022/08/02 07:53:40;;;;;;;1.50;0.80;;;26.00;84.80;;;;;;6151267;23;20420;-89
2022/08/02 07:56:06;;;;;;;1.50;0.90;;;26.10;83.90;;;;;;6162267;23;21056;-88
2022/08/02 07:58:35;;;;;;;1.50;0.83;;;26.20;84.60;;;;;;6153787;23;20424;-89
2022/08/02 08:01:01;;;;;;;1.50;0.90;;;26.30;83.90;;;;;;6137809;23;20552;-90
2022/08/02 08:03:29;;;;;;;1.50;0.80;;;26.40;83.80;;;;;;6161127;23;20468;-90
2022/08/02 08:05:55;;;;;;;1.50;0.80;;;26.60;82.70;;;;;;6138611;23;20474;-89
2022/08/02 08:08:23;;;;;;;1.50;1.10;;;26.80;81.90;;;;;;6156092;23;20416;-89
2022/08/02 08:10:49;;;;;;;1.50;0.80;;;27.00;81.60;;;;;;6140157;23;21176;-88
2022/08/02 08:13:16;;;;;;;1.40;0.90;;;27.10;80.20;;;;;;6152231;23;20424;-90
2022/08/02 08:15:44;;;;;;;1.40;0.80;;;27.10;81.30;;;;;;6153995;23;20421;-89
2022/08/02 08:18:11;;;;;;;1.50;0.90;;;27.40;79.90;;;;;;6152862;23;20421;-90
2022/08/02 08:20:38;;;;;;;1.50;0.90;;;27.50;78.90;;;;;;6153384;23;20823;-91
2022/08/02 08:23:05;;;;;;;1.50;0.90;;;27.40;79.20;;;;;;6137992;23;20532;-89
2022/08/02 08:25:32;;;;;;;1.50;0.80;;;27.30;78.80;;;;;;6153548;23;20507;-90
2022/08/02 08:27:59;;;;;;;1.40;0.80;;;27.50;79.00;;;;;;6137712;23;20858;-89
2022/08/02 08:30:26;;;;;;;1.40;0.80;;;27.80;79.10;;;;;;6154275;23;20510;-88
2022/08/02 08:32:54;;;;;;;1.47;0.80;;;27.90;77.10;;;;;;6154851;23;20424;-89
2022/08/02 08:35:22;;;;;;;1.47;0.80;;;28.10;77.90;;;;;;6162726;23;20430;-87
2022/08/02 08:37:49;;;;;;;1.50;0.80;;;28.30;77.00;;;;;;6155397;23;20763;-89
2022/08/02 08:40:20;;;;;;;1.47;0.80;;;28.50;76.40;;;;;;6158341;23;20503;-90
2022/08/02 08:42:48;;;;;;;1.50;1.00;;;28.60;76.20;;;;;;6143448;23;20971;-89
2022/08/02 08:45:16;;;;;;;1.50;0.83;;;28.70;74.70;;;;;;6155685;23;20488;-91
2022/08/02 08:47:44;;;;;;;1.50;0.80;;;28.80;75.50;;;;;;6142563;23;20448;-89
2022/08/02 08:50:24;;;;;;;1.50;0.90;;;29.00;74.80;;;;;;6156411;23;20454;-91
2022/08/02 08:52:56;;;;;;;1.47;0.80;;;29.10;74.70;;;;;;6155228;23;20916;-90
2022/08/02 08:55:25;;;;;;;2.13;1.83;;;29.20;74.70;;;;;;6156134;23;20558;-91
2022/08/02 08:57:54;;;;;;;1.47;0.80;;;29.30;75.10;;;;;;6155256;23;20482;-90
2022/08/02 09:00:22;;;;;;;1.47;0.80;;;29.50;73.00;;;;;;6156168;23;20440;-90
2022/08/02 09:02:49;;;;;;;1.47;0.80;;;29.60;73.80;;;;;;6165320;23;21119;-89
2022/08/02 09:05:18;;;;;;;1.50;0.80;;;29.80;73.80;;;;;;6163982;23;20475;-90
2022/08/02 09:07:48;;;;;;;1.47;0.80;;;29.80;73.00;;;;;;6156647;23;20464;-91
2022/08/02 09:10:34;;;;;;;1.43;0.80;;;29.90;73.00;;;;;;6156386;23;20440;-90
2022/08/02 09:13:10;;;;;;;1.50;0.90;;;30.10;73.70;;;;;;6141309;23;20460;-90
2022/08/02 09:15:37;;;;;;;1.50;0.90;;;30.30;72.70;;;;;;6154102;23;20426;-90
2022/08/02 09:18:05;;;;;;;1.47;0.80;;;30.40;71.60;;;;;;6136960;23;20821;-88
2022/08/02 09:20:34;;;;;;;1.50;0.80;;;30.30;72.00;;;;;;6155048;23;20531;-89
2022/08/02 09:23:08;;;;;;;1.50;0.80;;;30.50;73.20;;;;;;6138671;23;20450;-90
2022/08/02 09:25:35;;;;;;;1.50;0.80;;;30.80;71.60;;;;;;6156652;23;20458;-90
2022/08/02 09:28:04;;;;;;;1.50;0.87;;;31.00;69.80;;;;;;6153999;23;20435;-89
2022/08/02 09:30:32;;;;;;;1.60;1.03;;;31.20;71.00;;;;;;6151610;23;20472;-90
2022/08/02 09:32:59;;;;;;;1.47;0.80;;;31.30;69.10;;;;;;6134960;23;20458;-91
2022/08/02 09:35:35;;;;;;;1.47;0.80;;;31.50;70.00;;;;;;6154028;23;20432;-90
2022/08/02 09:38:13;;;;;;;1.50;0.97;;;31.60;68.00;;;;;;6140626;23;20986;-89
2022/08/02 09:40:43;;;;;;;1.43;0.80;;;31.40;69.00;;;;;;6155468;23;20502;-89
2022/08/02 09:43:10;;;;;;;1.50;0.80;;;31.40;69.00;;;;;;6136775;23;20448;-88
2022/08/02 09:45:37;;;;;;;1.50;0.80;;;31.40;69.40;;;;;;6162380;23;20456;-90
2022/08/02 09:48:07;;;;;;;1.43;0.80;;;31.40;69.90;;;;;;6169762;23;20424;-89
2022/08/02 09:50:39;;;;;;;1.40;0.80;;;31.50;69.10;;;;;;6164215;23;20607;-91
2022/08/02 09:53:11;;;;;;;1.43;0.80;;;31.50;68.40;;;;;;6136519;23;20448;-89
2022/08/02 09:55:37;;;;;;;1.90;1.10;;;31.30;69.40;;;;;;6153285;23;20415;-90
2022/08/02 09:58:17;;;;;;;1.47;0.80;;;31.20;70.00;;;;;;6139142;23;20478;-90
2022/08/02 10:00:55;;;;;;;1.50;0.80;;;31.00;68.80;;;;;;6155225;23;20448;-90
2022/08/02 10:03:22;;;;;;;1.43;0.80;;;31.00;70.20;;;;;;6115501;23;20435;-90
2022/08/02 10:05:53;;;;;;;1.40;0.80;;;31.00;70.00;;;;;;6149944;23;20424;-90
2022/08/02 10:08:22;;;;;;;1.43;0.80;;;31.10;70.00;;;;;;6129616;23;20828;-89
2022/08/02 10:10:59;;;;;;;1.43;0.80;;;31.20;68.50;;;;;;6138876;23;20437;-89
2022/08/02 10:13:28;;;;;;;1.40;0.90;;;31.30;68.30;;;;;;6155565;23;20404;-91
2022/08/02 10:15:56;;;;;;;1.43;0.80;;;31.60;68.20;;;;;;6154815;23;20425;-90
2022/08/02 10:18:22;;;;;;;1.60;1.20;;;31.80;65.60;;;;;;6155242;23;20447;-90
2022/08/02 10:20:54;;;;;;;1.50;0.97;;;31.90;66.50;;;;;;6140841;23;20447;-89
2022/08/02 10:23:22;;;;;;;1.43;0.80;;;32.10;65.80;;;;;;6155263;23;20409;-89
2022/08/02 10:25:52;;;;;;;1.47;0.80;;;32.30;65.80;;;;;;6161410;23;20447;-90
2022/08/02 10:28:25;;;;;;;1.47;0.80;;;32.40;67.00;;;;;;6155187;23;20443;-89
2022/08/02 10:30:55;;;;;;;1.47;0.80;;;32.50;67.30;;;;;;6156675;23;20451;-88
2022/08/02 10:33:25;;;;;;;1.60;1.00;;;32.60;66.50;;;;;;6155555;23;20420;-90
2022/08/02 10:35:57;;;;;;;1.50;1.00;;;32.50;66.00;;;;;;6155444;23;20409;-90
2022/08/02 10:38:24;;;;;;;1.43;0.80;;;32.30;65.90;;;;;;6156142;23;20431;-90
2022/08/02 10:40:52;;;;;;;1.40;0.80;;;32.10;67.20;;;;;;6145693;23;20491;-90
2022/08/02 10:43:42;;;;;;;1.47;0.80;;;31.90;67.40;;;;;;6153967;23;20455;-90
2022/08/02 10:46:23;;;;;;;1.47;0.80;;;31.90;67.80;;;;;;6140556;23;20528;-90
2022/08/02 10:49:11;;;;;;;1.43;0.80;;;32.20;66.60;;;;;;6156232;23;20448;-89
2022/08/02 10:52:08;;;;;;;1.50;0.80;;;32.50;66.20;;;;;;6140436;23;20511;-90
2022/08/02 10:54:37;;;;;;;1.47;0.80;;;32.90;66.40;;;;;;6165310;23;20172;-90
2022/08/02 10:57:15;;;;;;;1.40;0.80;;;33.20;65.00;;;;;;6141981;23;20215;-89
2022/08/02 10:59:43;;;;;;;1.47;0.80;;;33.40;62.90;;;;;;6166763;23;20229;-91
2022/08/02 11:02:11;;;;;;;1.47;0.80;;;33.50;63.50;;;;;;6153959;23;20176;-89
2022/08/02 11:05:05;;;;;;;1.50;0.80;;;33.60;61.20;;;;;;6156169;23;20195;-90
2022/08/02 11:07:36;;;;;;;1.47;0.80;;;33.50;61.80;;;;;;6139531;23;20201;-90
2022/08/02 11:10:43;;;;;;;1.47;0.80;;;33.60;61.70;;;;;;6155776;23;20283;-88
2022/08/02 11:13:12;;;;;;;1.43;0.80;;;33.70;62.90;;;;;;6140030;23;20212;-90
2022/08/02 11:16:01;;;;;;;1.47;0.80;;;34.00;61.70;;;;;;6153939;23;20644;-91
2022/08/02 11:19:27;;;;;;;1.47;0.80;;;34.10;61.90;;;;;;6155630;23;20267;-90
2022/08/02 11:22:01;;;;;;;1.40;0.80;;;33.90;61.40;;;;;;6048980;23;20687;-90
2022/08/02 11:24:31;;;;;;;1.40;0.80;;;33.50;61.70;;;;;;6142825;23;20187;-90
2022/08/02 11:26:59;;;;;;;1.47;0.80;;;33.30;62.40;;;;;;6163787;23;20173;-88
2022/08/02 11:29:38;;;;;;;1.43;0.80;;;33.10;63.00;;;;;;6163986;23;20192;-89
2022/08/02 11:32:08;;;;;;;1.40;0.80;;;33.00;62.80;;;;;;6155396;23;20321;-90
2022/08/02 11:34:35;;;;;;;1.47;0.80;;;33.00;62.80;;;;;;6153915;23;20426;-91
2022/08/02 11:37:02;;;;;;;1.40;0.80;;;33.00;63.20;;;;;;6155248;23;20563;-90
2022/08/02 11:39:33;;;;;;;1.47;0.80;;;33.00;63.50;;;;;;6156222;23;20185;-90
2022/08/02 11:42:00;;;;;;;1.70;1.30;;;33.10;62.60;;;;;;6140301;23;20897;-91
2022/08/02 11:44:29;;;;;;;1.40;0.80;;;33.10;62.50;;;;;;6155508;23;20430;-90
2022/08/02 11:47:00;;;;;;;1.40;0.80;;;33.10;62.50;;;;;;6141365;23;20222;-90
2022/08/02 11:49:28;;;;;;;1.40;0.80;;;33.00;62.70;;;;;;6155397;23;20243;-90
2022/08/02 11:51:59;;;;;;;1.43;0.80;;;32.90;63.10;;;;;;6141052;23;20260;-90
2022/08/02 11:54:28;;;;;;;1.50;0.80;;;32.80;63.40;;;;;;6152711;23;20165;-90
2022/08/02 11:59:26;;;;;;;1.47;0.80;;;32.70;64.00;;;;;;6153581;23;21050;-78
2022/08/02 12:01:57;;;;;;;1.40;0.80;;;32.70;63.80;;;;;;6142585;23;20475;-79
2022/08/02 12:04:25;;;;;;;1.50;0.80;;;32.70;64.10;;;;;;6166470;23;20197;-78
2022/08/02 12:06:59;;;;;;;1.43;0.80;;;32.80;64.30;;;;;;6139346;23;20447;-77
2022/08/02 12:09:29;;;;;;;1.40;0.80;;;32.80;64.30;;;;;;6162755;23;20416;-77
2022/08/02 12:11:57;;;;;;;1.40;0.80;;;32.70;62.80;;;;;;6143351;23;20460;-82
2022/08/02 12:14:29;;;;;;;2.43;1.40;;;32.60;62.90;;;;;;6169614;23;20451;-78
2022/08/02 12:19:43;;;;;;;1.43;0.80;;;32.60;63.20;;;;;;6168057;23;20416;-80
2022/08/02 12:22:21;;;;;;;1.43;0.80;;;32.70;63.50;;;;;;6166147;23;20927;-79
2022/08/02 12:24:50;;;;;;;1.47;0.80;;;32.80;62.70;;;;;;6158887;23;20829;-78
2022/08/02 12:27:32;;;;;;;1.40;0.90;;;32.70;62.40;;;;;;6147835;23;20444;-80
2022/08/02 12:30:05;;;;;;;1.50;0.90;;;32.70;62.60;;;;;;6169696;23;20169;-78
2022/08/02 12:32:33;;;;;;;1.47;0.80;;;32.80;62.80;;;;;;6168439;23;20192;-80
2022/08/02 12:35:07;;;;;;;1.40;0.80;;;32.90;63.70;;;;;;6168190;23;20442;-78
2022/08/02 12:37:39;;;;;;;1.40;0.80;;;33.20;63.10;;;;;;6148055;23;20488;-78
2022/08/02 12:40:25;;;;;;;1.43;0.80;;;33.60;61.20;;;;;;6171250;23;20444;-79
2022/08/02 12:42:55;;;;;;;1.43;0.80;;;33.80;60.60;;;;;;6162659;23;20165;-79
2022/08/02 12:45:26;;;;;;;1.40;0.80;;;34.10;60.80;;;;;;6172169;23;20200;-78
2022/08/02 12:48:01;;;;;;;1.43;0.80;;;34.30;59.50;;;;;;6143762;23;20214;-78
2022/08/02 12:50:31;;;;;;;1.43;0.87;;;34.30;59.70;;;;;;6170400;23;20180;-78
2022/08/02 12:53:11;;;;;;;1.47;0.80;;;34.30;58.80;;;;;;6142305;23;20209;-78
2022/08/02 12:55:49;;;;;;;1.40;0.80;;;34.40;59.30;;;;;;6170695;23;20200;-80
2022/08/02 12:58:17;;;;;;;1.40;0.80;;;34.40;59.50;;;;;;6097564;23;20211;-78
2022/08/02 13:00:59;;;;;;;1.50;0.90;;;34.30;58.70;;;;;;6160544;23;20177;-78
2022/08/02 13:03:30;;;;;;;1.40;0.80;;;34.20;59.30;;;;;;6159899;23;20253;-79
2022/08/02 13:05:57;;;;;;;1.43;0.80;;;34.20;59.70;;;;;;6155671;23;20294;-77
2022/08/02 13:08:25;;;;;;;2.23;1.67;;;34.20;59.80;;;;;;6158484;23;20183;-78
2022/08/02 13:10:53;;;;;;;1.40;0.80;;;34.20;59.20;;;;;;6160492;23;20177;-80
2022/08/02 13:13:20;;;;;;;1.40;0.80;;;34.30;59.80;;;;;;6171849;23;20196;-79
2022/08/02 13:15:50;;;;;;;1.43;0.80;;;34.40;59.70;;;;;;6171127;23;20204;-79
2022/08/02 13:18:18;;;;;;;1.40;0.80;;;34.50;59.30;;;;;;6161884;23;20204;-77